sensor_id;sensor_type;location;lat;lon;timestamp;temperature;humidity
45207;DHT22;30950;53.086;21.576;2022-08-19T00:01:46;21.70;99.90
45207;DHT22;30950;53.086;21.576;2022-08-19T00:04:26;21.60;99.90
45207;DHT22;30950;53.086;21.576;2022-08-19T00:06:54;21.60;99.90
45207;DHT22;30950;53.086;21.576;2022-08-19T00:09:23;21.60;99.90
45207;DHT22;30950;53.086;21.576;2022-08-19T00:11:52;21.60;99.90
45207;DHT22;30950;53.086;21.576;2022-08-19T00:14:19;21.50;99.90
45207;DHT22;30950;53.086;21.576;2022-08-19T00:16:48;21.50;99.90
45207;DHT22;30950;53.086;21.576;2022-08-19T00:19:16;21.50;99.90
45207;DHT22;30950;53.086;21.576;2022-08-19T00:21:44;21.40;99.90
45207;DHT22;30950;53.086;21.576;2022-08-19T00:24:13;21.40;99.90
45207;DHT22;30950;53.086;21.576;2022-08-19T00:26:43;21.40;99.90
45207;DHT22;30950;53.086;21.576;2022-08-19T00:29:14;21.40;99.90
45207;DHT22;30950;53.086;21.576;2022-08-19T00:31:42;21.40;99.90
45207;DHT22;30950;53.086;21.576;2022-08-19T00:34:11;21.30;99.90
45207;DHT22;30950;53.086;21.576;2022-08-19T00:36:40;21.30;99.90
45207;DHT22;30950;53.086;21.576;2022-08-19T00:39:08;21.30;99.90
45207;DHT22;30950;53.086;21.576;2022-08-19T00:41:35;21.30;99.90
45207;DHT22;30950;53.086;21.576;2022-08-19T00:44:09;21.30;99.90
45207;DHT22;30950;53.086;21.576;2022-08-19T00:46:38;21.30;99.90
45207;DHT22;30950;53.086;21.576;2022-08-19T00:49:20;21.30;99.90
45207;DHT22;30950;53.086;21.576;2022-08-19T00:51:57;21.30;99.90
45207;DHT22;30950;53.086;21.576;2022-08-19T00:54:27;21.30;99.90
45207;DHT22;30950;53.086;21.576;2022-08-19T00:56:58;21.20;99.90
45207;DHT22;30950;53.086;21.576;2022-08-19T00:59:28;21.30;99.90
45207;DHT22;30950;53.086;21.576;2022-08-19T01:02:16;21.20;99.90
45207;DHT22;30950;53.086;21.576;2022-08-19T01:04:43;21.20;99.90
45207;DHT22;30950;53.086;21.576;2022-08-19T01:07:10;21.20;99.90
45207;DHT22;30950;53.086;21.576;2022-08-19T01:09:43;21.20;99.90
45207;DHT22;30950;53.086;21.576;2022-08-19T01:12:11;21.10;99.90
45207;DHT22;30950;53.086;21.576;2022-08-19T01:14:39;21.10;99.90
45207;DHT22;30950;53.086;21.576;2022-08-19T01:17:11;21.10;99.90
45207;DHT22;30950;53.086;21.576;2022-08-19T01:19:41;21.20;99.90
45207;DHT22;30950;53.086;21.576;2022-08-19T01:24:59;21.10;99.90
45207;DHT22;30950;53.086;21.576;2022-08-19T01:27:27;21.10;99.90
45207;DHT22;30950;53.086;21.576;2022-08-19T01:30:13;21.10;99.90
45207;DHT22;30950;53.086;21.576;2022-08-19T01:32:41;21.10;99.90
45207;DHT22;30950;53.086;21.576;2022-08-19T01:35:11;21.00;99.90
45207;DHT22;30950;53.086;21.576;2022-08-19T01:37:54;21.00;99.90
45207;DHT22;30950;53.086;21.576;2022-08-19T01:40:25;21.00;99.90
45207;DHT22;30950;53.086;21.576;2022-08-19T01:42:53;20.90;99.90
45207;DHT22;30950;53.086;21.576;2022-08-19T01:45:24;20.90;99.90
45207;DHT22;30950;53.086;21.576;2022-08-19T01:47:52;20.90;99.90
45207;DHT22;30950;53.086;21.576;2022-08-19T01:50:30;20.90;99.90
45207;DHT22;30950;53.086;21.576;2022-08-19T01:52:58;20.80;99.90
45207;DHT22;30950;53.086;21.576;2022-08-19T01:55:35;20.80;99.90
45207;DHT22;30950;53.086;21.576;2022-08-19T01:58:18;20.70;99.90
45207;DHT22;30950;53.086;21.576;2022-08-19T02:00:47;20.70;99.90
45207;DHT22;30950;53.086;21.576;2022-08-19T02:03:15;20.70;99.90
45207;DHT22;30950;53.086;21.576;2022-08-19T02:05:43;20.70;99.90
45207;DHT22;30950;53.086;21.576;2022-08-19T02:08:11;20.60;99.90
45207;DHT22;30950;53.086;21.576;2022-08-19T02:10:41;20.60;99.90
45207;DHT22;30950;53.086;21.576;2022-08-19T02:13:10;20.60;99.90
45207;DHT22;30950;53.086;21.576;2022-08-19T02:15:37;20.60;99.90
45207;DHT22;30950;53.086;21.576;2022-08-19T02:18:05;20.50;99.90
45207;DHT22;30950;53.086;21.576;2022-08-19T02:20:33;20.50;99.90
45207;DHT22;30950;53.086;21.576;2022-08-19T02:23:00;20.50;99.90
45207;DHT22;30950;53.086;21.576;2022-08-19T02:25:28;20.50;99.90
45207;DHT22;30950;53.086;21.576;2022-08-19T02:27:55;20.40;99.90
45207;DHT22;30950;53.086;21.576;2022-08-19T02:30:22;20.50;99.90
45207;DHT22;30950;53.086;21.576;2022-08-19T02:32:52;20.40;99.90
45207;DHT22;30950;53.086;21.576;2022-08-19T02:35:19;20.50;99.90
45207;DHT22;30950;53.086;21.576;2022-08-19T02:37:46;20.40;99.90
45207;DHT22;30950;53.086;21.576;2022-08-19T02:40:33;20.40;99.90
45207;DHT22;30950;53.086;21.576;2022-08-19T02:43:05;20.40;99.90
45207;DHT22;30950;53.086;21.576;2022-08-19T02:45:36;20.40;99.90
45207;DHT22;30950;53.086;21.576;2022-08-19T02:48:07;20.40;99.90
45207;DHT22;30950;53.086;21.576;2022-08-19T02:50:49;20.40;99.90
45207;DHT22;30950;53.086;21.576;2022-08-19T02:53:25;20.30;99.90
45207;DHT22;30950;53.086;21.576;2022-08-19T02:55:53;20.30;99.90
45207;DHT22;30950;53.086;21.576;2022-08-19T02:58:21;20.30;99.90
45207;DHT22;30950;53.086;21.576;2022-08-19T03:00:55;20.30;99.90
45207;DHT22;30950;53.086;21.576;2022-08-19T03:03:23;20.30;99.90
45207;DHT22;30950;53.086;21.576;2022-08-19T03:05:50;20.30;99.90
45207;DHT22;30950;53.086;21.576;2022-08-19T03:08:23;20.30;99.90
45207;DHT22;30950;53.086;21.576;2022-08-19T03:10:51;20.30;99.90
45207;DHT22;30950;53.086;21.576;2022-08-19T03:13:20;20.30;99.90
45207;DHT22;30950;53.086;21.576;2022-08-19T03:15:47;20.30;99.90
45207;DHT22;30950;53.086;21.576;2022-08-19T03:18:16;20.30;99.90
45207;DHT22;30950;53.086;21.576;2022-08-19T03:20:46;20.30;99.90
45207;DHT22;30950;53.086;21.576;2022-08-19T03:23:14;20.30;99.90
45207;DHT22;30950;53.086;21.576;2022-08-19T03:25:45;20.30;99.90
45207;DHT22;30950;53.086;21.576;2022-08-19T03:28:23;20.30;99.90
45207;DHT22;30950;53.086;21.576;2022-08-19T03:30:57;20.30;99.90
45207;DHT22;30950;53.086;21.576;2022-08-19T03:33:29;20.30;99.90
45207;DHT22;30950;53.086;21.576;2022-08-19T03:38:39;20.30;99.90
45207;DHT22;30950;53.086;21.576;2022-08-19T03:41:10;20.30;99.90
45207;DHT22;30950;53.086;21.576;2022-08-19T03:43:39;20.30;99.90
45207;DHT22;30950;53.086;21.576;2022-08-19T03:46:11;20.30;99.90
45207;DHT22;30950;53.086;21.576;2022-08-19T03:48:40;20.30;99.90
45207;DHT22;30950;53.086;21.576;2022-08-19T03:51:16;20.30;99.90
45207;DHT22;30950;53.086;21.576;2022-08-19T03:53:58;20.30;99.90
45207;DHT22;30950;53.086;21.576;2022-08-19T03:56:27;20.30;99.90
45207;DHT22;30950;53.086;21.576;2022-08-19T03:58:56;20.40;99.90
45207;DHT22;30950;53.086;21.576;2022-08-19T04:01:26;20.40;99.90
45207;DHT22;30950;53.086;21.576;2022-08-19T04:04:01;20.40;99.90
45207;DHT22;30950;53.086;21.576;2022-08-19T04:06:33;20.40;99.90
45207;DHT22;30950;53.086;21.576;2022-08-19T04:09:08;20.50;99.90
45207;DHT22;30950;53.086;21.576;2022-08-19T04:11:41;20.50;99.90
45207;DHT22;30950;53.086;21.576;2022-08-19T04:14:17;20.60;99.90
45207;DHT22;30950;53.086;21.576;2022-08-19T04:16:47;20.60;99.90
45207;DHT22;30950;53.086;21.576;2022-08-19T04:19:16;20.70;99.90
45207;DHT22;30950;53.086;21.576;2022-08-19T04:21:46;20.70;99.90
45207;DHT22;30950;53.086;21.576;2022-08-19T04:24:15;20.80;99.90
45207;DHT22;30950;53.086;21.576;2022-08-19T04:26:42;20.90;99.90
45207;DHT22;30950;53.086;21.576;2022-08-19T04:29:19;20.90;99.90
45207;DHT22;30950;53.086;21.576;2022-08-19T04:31:49;21.00;99.90
45207;DHT22;30950;53.086;21.576;2022-08-19T04:34:18;21.10;99.90
45207;DHT22;30950;53.086;21.576;2022-08-19T04:36:50;21.00;99.90
45207;DHT22;30950;53.086;21.576;2022-08-19T04:39:21;21.10;99.90
45207;DHT22;30950;53.086;21.576;2022-08-19T04:41:50;21.20;99.90
45207;DHT22;30950;53.086;21.576;2022-08-19T04:44:36;21.20;99.90
45207;DHT22;30950;53.086;21.576;2022-08-19T04:47:12;21.20;99.90
45207;DHT22;30950;53.086;21.576;2022-08-19T04:49:39;21.30;99.90
45207;DHT22;30950;53.086;21.576;2022-08-19T04:52:06;21.30;99.90
45207;DHT22;30950;53.086;21.576;2022-08-19T04:54:35;21.40;99.90
45207;DHT22;30950;53.086;21.576;2022-08-19T04:57:07;21.50;99.90
45207;DHT22;30950;53.086;21.576;2022-08-19T04:59:38;21.50;99.90
45207;DHT22;30950;53.086;21.576;2022-08-19T05:02:07;21.60;99.90
45207;DHT22;30950;53.086;21.576;2022-08-19T05:04:35;21.70;99.90
45207;DHT22;30950;53.086;21.576;2022-08-19T05:07:07;21.70;99.90
45207;DHT22;30950;53.086;21.576;2022-08-19T05:09:35;21.80;99.90
45207;DHT22;30950;53.086;21.576;2022-08-19T05:12:22;21.80;99.90
45207;DHT22;30950;53.086;21.576;2022-08-19T05:14:56;21.90;99.90
45207;DHT22;30950;53.086;21.576;2022-08-19T05:17:26;22.00;99.90
45207;DHT22;30950;53.086;21.576;2022-08-19T05:19:58;22.10;99.90
45207;DHT22;30950;53.086;21.576;2022-08-19T05:22:45;22.20;99.90
45207;DHT22;30950;53.086;21.576;2022-08-19T05:25:16;22.30;99.90
45207;DHT22;30950;53.086;21.576;2022-08-19T05:27:46;22.40;99.90
45207;DHT22;30950;53.086;21.576;2022-08-19T05:30:14;22.50;99.90
45207;DHT22;30950;53.086;21.576;2022-08-19T05:32:42;22.60;99.90
45207;DHT22;30950;53.086;21.576;2022-08-19T05:35:09;22.70;99.90
45207;DHT22;30950;53.086;21.576;2022-08-19T05:37:38;22.80;99.90
45207;DHT22;30950;53.086;21.576;2022-08-19T05:40:08;22.90;99.90
45207;DHT22;30950;53.086;21.576;2022-08-19T05:42:37;23.00;99.90
45207;DHT22;30950;53.086;21.576;2022-08-19T05:45:06;23.10;99.90
45207;DHT22;30950;53.086;21.576;2022-08-19T05:47:34;23.20;99.90
45207;DHT22;30950;53.086;21.576;2022-08-19T05:50:08;23.30;99.90
45207;DHT22;30950;53.086;21.576;2022-08-19T05:52:36;23.40;99.90
45207;DHT22;30950;53.086;21.576;2022-08-19T05:55:09;23.50;99.90
45207;DHT22;30950;53.086;21.576;2022-08-19T05:57:37;23.60;99.90
45207;DHT22;30950;53.086;21.576;2022-08-19T06:00:06;23.80;99.90
45207;DHT22;30950;53.086;21.576;2022-08-19T06:02:38;23.80;99.90
45207;DHT22;30950;53.086;21.576;2022-08-19T06:05:06;24.00;99.90
45207;DHT22;30950;53.086;21.576;2022-08-19T06:07:35;24.10;99.90
45207;DHT22;30950;53.086;21.576;2022-08-19T06:10:05;24.20;99.90
45207;DHT22;30950;53.086;21.576;2022-08-19T06:12:33;24.30;99.90
45207;DHT22;30950;53.086;21.576;2022-08-19T06:15:05;24.50;99.90
45207;DHT22;30950;53.086;21.576;2022-08-19T06:17:34;24.50;99.90
45207;DHT22;30950;53.086;21.576;2022-08-19T06:20:07;24.70;99.90
45207;DHT22;30950;53.086;21.576;2022-08-19T06:22:44;24.80;99.90
45207;DHT22;30950;53.086;21.576;2022-08-19T06:25:13;24.90;99.90
45207;DHT22;30950;53.086;21.576;2022-08-19T06:27:41;24.90;99.90
45207;DHT22;30950;53.086;21.576;2022-08-19T06:30:28;25.00;99.90
45207;DHT22;30950;53.086;21.576;2022-08-19T06:32:56;25.10;99.90
45207;DHT22;30950;53.086;21.576;2022-08-19T06:35:23;25.20;99.90
45207;DHT22;30950;53.086;21.576;2022-08-19T06:37:52;25.30;99.90
45207;DHT22;30950;53.086;21.576;2022-08-19T06:40:19;25.40;99.90
45207;DHT22;30950;53.086;21.576;2022-08-19T06:42:47;25.50;99.90
45207;DHT22;30950;53.086;21.576;2022-08-19T06:45:22;25.50;99.90
45207;DHT22;30950;53.086;21.576;2022-08-19T06:47:52;25.70;99.90
45207;DHT22;30950;53.086;21.576;2022-08-19T06:50:24;25.70;99.90
45207;DHT22;30950;53.086;21.576;2022-08-19T06:52:52;25.90;99.90
45207;DHT22;30950;53.086;21.576;2022-08-19T06:55:19;26.00;99.90
45207;DHT22;30950;53.086;21.576;2022-08-19T06:57:46;26.00;99.90
45207;DHT22;30950;53.086;21.576;2022-08-19T07:00:15;26.00;99.90
45207;DHT22;30950;53.086;21.576;2022-08-19T07:02:43;26.00;99.20
45207;DHT22;30950;53.086;21.576;2022-08-19T07:05:19;26.10;98.70
45207;DHT22;30950;53.086;21.576;2022-08-19T07:07:46;26.00;98.30
45207;DHT22;30950;53.086;21.576;2022-08-19T07:10:13;26.10;98.40
45207;DHT22;30950;53.086;21.576;2022-08-19T07:12:41;26.10;98.50
45207;DHT22;30950;53.086;21.576;2022-08-19T07:15:08;26.20;98.80
45207;DHT22;30950;53.086;21.576;2022-08-19T07:17:38;26.20;98.60
45207;DHT22;30950;53.086;21.576;2022-08-19T07:20:09;26.30;98.50
45207;DHT22;30950;53.086;21.576;2022-08-19T07:22:37;26.30;98.10
45207;DHT22;30950;53.086;21.576;2022-08-19T07:25:07;26.40;97.30
45207;DHT22;30950;53.086;21.576;2022-08-19T07:27:35;26.40;97.30
45207;DHT22;30950;53.086;21.576;2022-08-19T07:30:07;26.50;97.30
45207;DHT22;30950;53.086;21.576;2022-08-19T07:32:39;26.60;97.40
45207;DHT22;30950;53.086;21.576;2022-08-19T07:35:07;26.70;97.50
45207;DHT22;30950;53.086;21.576;2022-08-19T07:37:36;26.80;97.20
45207;DHT22;30950;53.086;21.576;2022-08-19T07:40:06;26.90;96.80
45207;DHT22;30950;53.086;21.576;2022-08-19T07:42:34;26.90;96.40
45207;DHT22;30950;53.086;21.576;2022-08-19T07:45:02;27.00;96.20
45207;DHT22;30950;53.086;21.576;2022-08-19T07:47:29;27.10;96.00
45207;DHT22;30950;53.086;21.576;2022-08-19T07:50:18;27.20;95.60
45207;DHT22;30950;53.086;21.576;2022-08-19T07:52:48;27.30;95.70
45207;DHT22;30950;53.086;21.576;2022-08-19T07:55:22;27.30;94.80
45207;DHT22;30950;53.086;21.576;2022-08-19T07:58:12;27.40;94.00
45207;DHT22;30950;53.086;21.576;2022-08-19T08:00:40;27.40;94.20
45207;DHT22;30950;53.086;21.576;2022-08-19T08:03:08;27.60;94.40
45207;DHT22;30950;53.086;21.576;2022-08-19T08:05:36;27.60;94.00
45207;DHT22;30950;53.086;21.576;2022-08-19T08:08:22;27.70;93.80
45207;DHT22;30950;53.086;21.576;2022-08-19T08:11:16;27.80;93.60
45207;DHT22;30950;53.086;21.576;2022-08-19T08:13:47;27.90;93.40
45207;DHT22;30950;53.086;21.576;2022-08-19T08:16:33;28.00;92.90
45207;DHT22;30950;53.086;21.576;2022-08-19T08:19:00;28.10;92.50
45207;DHT22;30950;53.086;21.576;2022-08-19T08:21:27;28.20;92.30
45207;DHT22;30950;53.086;21.576;2022-08-19T08:23:55;28.30;92.30
45207;DHT22;30950;53.086;21.576;2022-08-19T08:26:23;28.40;92.10
45207;DHT22;30950;53.086;21.576;2022-08-19T08:28:52;28.50;91.80
45207;DHT22;30950;53.086;21.576;2022-08-19T08:31:20;28.60;91.50
45207;DHT22;30950;53.086;21.576;2022-08-19T08:33:47;28.70;91.30
45207;DHT22;30950;53.086;21.576;2022-08-19T08:36:15;28.80;90.40
45207;DHT22;30950;53.086;21.576;2022-08-19T08:38:43;28.90;90.30
45207;DHT22;30950;53.086;21.576;2022-08-19T08:44:00;29.10;88.70
45207;DHT22;30950;53.086;21.576;2022-08-19T08:46:42;29.10;87.90
45207;DHT22;30950;53.086;21.576;2022-08-19T08:49:28;29.20;87.50
45207;DHT22;30950;53.086;21.576;2022-08-19T08:52:22;29.30;84.80
45207;DHT22;30950;53.086;21.576;2022-08-19T08:55:03;29.30;85.60
45207;DHT22;30950;53.086;21.576;2022-08-19T08:58:01;29.40;84.50
45207;DHT22;30950;53.086;21.576;2022-08-19T09:02:59;29.50;83.80
45207;DHT22;30950;53.086;21.576;2022-08-19T09:11:08;29.80;80.80
45207;DHT22;30950;53.086;21.576;2022-08-19T09:16:25;29.90;77.40
45207;DHT22;30950;53.086;21.576;2022-08-19T09:19:00;30.00;76.60
45207;DHT22;30950;53.086;21.576;2022-08-19T09:21:28;30.10;74.60
45207;DHT22;30950;53.086;21.576;2022-08-19T09:24:02;30.20;74.90
45207;DHT22;30950;53.086;21.576;2022-08-19T09:26:32;30.30;74.40
45207;DHT22;30950;53.086;21.576;2022-08-19T09:29:19;30.30;73.90
45207;DHT22;30950;53.086;21.576;2022-08-19T09:31:48;30.40;73.50
45207;DHT22;30950;53.086;21.576;2022-08-19T09:34:16;30.50;73.10
45207;DHT22;30950;53.086;21.576;2022-08-19T09:36:49;30.60;73.00
45207;DHT22;30950;53.086;21.576;2022-08-19T09:39:22;30.70;70.70
45207;DHT22;30950;53.086;21.576;2022-08-19T09:41:50;30.70;69.10
45207;DHT22;30950;53.086;21.576;2022-08-19T09:44:19;30.80;67.30
45207;DHT22;30950;53.086;21.576;2022-08-19T09:46:47;30.80;67.20
45207;DHT22;30950;53.086;21.576;2022-08-19T09:49:17;30.90;66.60
45207;DHT22;30950;53.086;21.576;2022-08-19T09:51:45;31.00;66.00
45207;DHT22;30950;53.086;21.576;2022-08-19T09:54:18;31.00;64.50
45207;DHT22;30950;53.086;21.576;2022-08-19T09:56:52;31.10;64.60
45207;DHT22;30950;53.086;21.576;2022-08-19T09:59:21;31.10;65.30
45207;DHT22;30950;53.086;21.576;2022-08-19T10:01:48;31.20;64.50
45207;DHT22;30950;53.086;21.576;2022-08-19T10:04:15;31.30;64.10
45207;DHT22;30950;53.086;21.576;2022-08-19T10:06:49;31.40;64.00
45207;DHT22;30950;53.086;21.576;2022-08-19T10:09:21;31.50;61.50
45207;DHT22;30950;53.086;21.576;2022-08-19T10:12:02;31.50;62.10
45207;DHT22;30950;53.086;21.576;2022-08-19T10:14:32;31.60;62.20
45207;DHT22;30950;53.086;21.576;2022-08-19T10:17:01;31.60;62.00
45207;DHT22;30950;53.086;21.576;2022-08-19T10:19:46;31.70;60.90
45207;DHT22;30950;53.086;21.576;2022-08-19T10:22:22;31.80;60.20
45207;DHT22;30950;53.086;21.576;2022-08-19T10:24:51;31.80;59.90
45207;DHT22;30950;53.086;21.576;2022-08-19T10:27:19;31.80;59.00
45207;DHT22;30950;53.086;21.576;2022-08-19T10:29:46;32.00;59.90
45207;DHT22;30950;53.086;21.576;2022-08-19T10:32:14;32.20;60.20
45207;DHT22;30950;53.086;21.576;2022-08-19T10:34:42;32.70;58.90
45207;DHT22;30950;53.086;21.576;2022-08-19T10:37:16;33.10;57.40
45207;DHT22;30950;53.086;21.576;2022-08-19T10:39:50;33.50;57.20
45207;DHT22;30950;53.086;21.576;2022-08-19T10:42:18;33.80;55.70
45207;DHT22;30950;53.086;21.576;2022-08-19T10:44:45;34.20;55.30
45207;DHT22;30950;53.086;21.576;2022-08-19T10:47:14;34.60;54.30
45207;DHT22;30950;53.086;21.576;2022-08-19T10:49:53;34.70;52.70
45207;DHT22;30950;53.086;21.576;2022-08-19T10:52:40;34.80;52.70
45207;DHT22;30950;53.086;21.576;2022-08-19T10:55:19;34.70;51.80
45207;DHT22;30950;53.086;21.576;2022-08-19T10:58:13;34.50;51.70
45207;DHT22;30950;53.086;21.576;2022-08-19T11:00:42;34.30;52.10
45207;DHT22;30950;53.086;21.576;2022-08-19T11:03:11;34.00;52.70
45207;DHT22;30950;53.086;21.576;2022-08-19T11:05:38;33.70;52.80
45207;DHT22;30950;53.086;21.576;2022-08-19T11:08:08;33.50;53.20
45207;DHT22;30950;53.086;21.576;2022-08-19T11:10:51;33.30;52.40
45207;DHT22;30950;53.086;21.576;2022-08-19T11:13:21;33.10;53.00
45207;DHT22;30950;53.086;21.576;2022-08-19T11:16:06;32.90;53.60
45207;DHT22;30950;53.086;21.576;2022-08-19T11:18:39;32.90;54.20
45207;DHT22;30950;53.086;21.576;2022-08-19T11:21:18;32.80;53.70
45207;DHT22;30950;53.086;21.576;2022-08-19T11:23:48;32.70;53.60
45207;DHT22;30950;53.086;21.576;2022-08-19T11:26:18;32.70;53.70
45207;DHT22;30950;53.086;21.576;2022-08-19T11:28:46;32.60;53.90
45207;DHT22;30950;53.086;21.576;2022-08-19T11:31:16;32.60;54.00
45207;DHT22;30950;53.086;21.576;2022-08-19T11:33:44;32.70;53.90
45207;DHT22;30950;53.086;21.576;2022-08-19T11:36:14;32.70;54.40
45207;DHT22;30950;53.086;21.576;2022-08-19T11:38:44;32.80;54.60
45207;DHT22;30950;53.086;21.576;2022-08-19T11:41:12;32.80;54.30
45207;DHT22;30950;53.086;21.576;2022-08-19T11:43:40;32.90;54.30
45207;DHT22;30950;53.086;21.576;2022-08-19T11:46:08;32.90;54.10
45207;DHT22;30950;53.086;21.576;2022-08-19T11:48:37;33.00;53.40
45207;DHT22;30950;53.086;21.576;2022-08-19T11:51:07;33.00;52.60
45207;DHT22;30950;53.086;21.576;2022-08-19T11:53:37;33.00;52.60
45207;DHT22;30950;53.086;21.576;2022-08-19T11:56:06;33.00;52.00
45207;DHT22;30950;53.086;21.576;2022-08-19T11:58:34;33.10;52.10
45207;DHT22;30950;53.086;21.576;2022-08-19T12:01:04;33.10;52.10
45207;DHT22;30950;53.086;21.576;2022-08-19T12:03:32;33.20;52.50
45207;DHT22;30950;53.086;21.576;2022-08-19T12:06:09;33.20;53.10
45207;DHT22;30950;53.086;21.576;2022-08-19T12:08:37;33.30;53.00
45207;DHT22;30950;53.086;21.576;2022-08-19T12:11:05;33.40;52.60
45207;DHT22;30950;53.086;21.576;2022-08-19T12:13:35;33.40;52.30
45207;DHT22;30950;53.086;21.576;2022-08-19T12:16:15;33.40;51.70
45207;DHT22;30950;53.086;21.576;2022-08-19T12:18:43;33.50;51.50
45207;DHT22;30950;53.086;21.576;2022-08-19T12:21:14;33.50;51.50
45207;DHT22;30950;53.086;21.576;2022-08-19T12:23:42;33.50;52.00
45207;DHT22;30950;53.086;21.576;2022-08-19T12:26:11;33.50;51.30
45207;DHT22;30950;53.086;21.576;2022-08-19T12:28:38;33.50;51.20
45207;DHT22;30950;53.086;21.576;2022-08-19T12:31:06;33.60;50.80
45207;DHT22;30950;53.086;21.576;2022-08-19T12:33:33;33.60;50.20
45207;DHT22;30950;53.086;21.576;2022-08-19T12:36:05;33.60;50.10
45207;DHT22;30950;53.086;21.576;2022-08-19T12:38:33;33.60;50.10
45207;DHT22;30950;53.086;21.576;2022-08-19T12:41:01;33.70;50.10
45207;DHT22;30950;53.086;21.576;2022-08-19T12:43:34;33.70;49.80
45207;DHT22;30950;53.086;21.576;2022-08-19T12:46:09;33.70;49.20
45207;DHT22;30950;53.086;21.576;2022-08-19T12:48:38;33.80;49.40
45207;DHT22;30950;53.086;21.576;2022-08-19T12:51:11;33.80;50.10
45207;DHT22;30950;53.086;21.576;2022-08-19T12:53:39;34.00;50.30
45207;DHT22;30950;53.086;21.576;2022-08-19T12:56:09;34.20;50.20
45207;DHT22;30950;53.086;21.576;2022-08-19T12:58:39;34.40;49.60
45207;DHT22;30950;53.086;21.576;2022-08-19T13:01:11;34.70;49.30
45207;DHT22;30950;53.086;21.576;2022-08-19T13:03:39;35.00;49.40
45207;DHT22;30950;53.086;21.576;2022-08-19T13:06:08;35.40;49.70
45207;DHT22;30950;53.086;21.576;2022-08-19T13:08:36;35.70;49.00
45207;DHT22;30950;53.086;21.576;2022-08-19T13:11:11;36.00;48.20
45207;DHT22;30950;53.086;21.576;2022-08-19T13:13:40;36.30;48.60
45207;DHT22;30950;53.086;21.576;2022-08-19T13:16:09;36.80;47.90
45207;DHT22;30950;53.086;21.576;2022-08-19T13:18:39;37.20;46.50
45207;DHT22;30950;53.086;21.576;2022-08-19T13:21:08;37.50;46.90
45207;DHT22;30950;53.086;21.576;2022-08-19T13:23:36;37.80;46.40
45207;DHT22;30950;53.086;21.576;2022-08-19T13:26:05;38.10;46.30
45207;DHT22;30950;53.086;21.576;2022-08-19T13:28:34;38.40;45.70
45207;DHT22;30950;53.086;21.576;2022-08-19T13:31:22;38.70;45.20
45207;DHT22;30950;53.086;21.576;2022-08-19T13:34:07;38.90;44.90
45207;DHT22;30950;53.086;21.576;2022-08-19T13:36:36;39.00;44.10
45207;DHT22;30950;53.086;21.576;2022-08-19T13:39:05;39.10;44.10
45207;DHT22;30950;53.086;21.576;2022-08-19T13:41:33;39.10;43.80
45207;DHT22;30950;53.086;21.576;2022-08-19T13:44:00;39.20;43.60
45207;DHT22;30950;53.086;21.576;2022-08-19T13:46:28;39.20;43.30
45207;DHT22;30950;53.086;21.576;2022-08-19T13:48:57;39.20;43.30
45207;DHT22;30950;53.086;21.576;2022-08-19T13:51:24;39.20;42.90
45207;DHT22;30950;53.086;21.576;2022-08-19T13:53:52;39.00;42.90
45207;DHT22;30950;53.086;21.576;2022-08-19T13:56:19;38.80;42.90
45207;DHT22;30950;53.086;21.576;2022-08-19T13:58:52;38.60;43.00
45207;DHT22;30950;53.086;21.576;2022-08-19T14:01:22;38.40;43.40
45207;DHT22;30950;53.086;21.576;2022-08-19T14:03:51;38.50;43.70
45207;DHT22;30950;53.086;21.576;2022-08-19T14:06:18;38.60;43.90
45207;DHT22;30950;53.086;21.576;2022-08-19T14:08:46;38.70;43.90
45207;DHT22;30950;53.086;21.576;2022-08-19T14:11:13;38.90;43.60
45207;DHT22;30950;53.086;21.576;2022-08-19T14:13:41;38.90;42.90
45207;DHT22;30950;53.086;21.576;2022-08-19T14:16:09;38.70;42.30
45207;DHT22;30950;53.086;21.576;2022-08-19T14:18:37;38.60;42.80
45207;DHT22;30950;53.086;21.576;2022-08-19T14:21:05;38.50;43.00
45207;DHT22;30950;53.086;21.576;2022-08-19T14:23:34;38.40;43.10
45207;DHT22;30950;53.086;21.576;2022-08-19T14:26:15;38.20;42.90
45207;DHT22;30950;53.086;21.576;2022-08-19T14:28:43;37.90;43.00
45207;DHT22;30950;53.086;21.576;2022-08-19T14:31:13;37.60;43.20
45207;DHT22;30950;53.086;21.576;2022-08-19T14:33:43;37.40;43.50
45207;DHT22;30950;53.086;21.576;2022-08-19T14:36:10;37.00;43.50
45207;DHT22;30950;53.086;21.576;2022-08-19T14:38:38;36.60;43.90
45207;DHT22;30950;53.086;21.576;2022-08-19T14:43:45;36.20;44.60
45207;DHT22;30950;53.086;21.576;2022-08-19T14:46:15;36.10;45.00
45207;DHT22;30950;53.086;21.576;2022-08-19T14:48:43;36.10;45.40
45207;DHT22;30950;53.086;21.576;2022-08-19T14:51:11;36.10;45.30
45207;DHT22;30950;53.086;21.576;2022-08-19T14:53:38;36.10;45.10
45207;DHT22;30950;53.086;21.576;2022-08-19T14:56:11;36.10;45.00
45207;DHT22;30950;53.086;21.576;2022-08-19T14:58:42;36.10;45.00
45207;DHT22;30950;53.086;21.576;2022-08-19T15:01:11;36.10;45.00
45207;DHT22;30950;53.086;21.576;2022-08-19T15:03:38;36.00;45.30
45207;DHT22;30950;53.086;21.576;2022-08-19T15:06:08;36.00;45.20
45207;DHT22;30950;53.086;21.576;2022-08-19T15:08:39;35.90;45.00
45207;DHT22;30950;53.086;21.576;2022-08-19T15:11:10;35.90;45.10
45207;DHT22;30950;53.086;21.576;2022-08-19T15:13:37;35.80;45.00
45207;DHT22;30950;53.086;21.576;2022-08-19T15:16:06;35.70;45.30
45207;DHT22;30950;53.086;21.576;2022-08-19T15:18:45;35.70;45.70
45207;DHT22;30950;53.086;21.576;2022-08-19T15:21:14;35.70;45.70
45207;DHT22;30950;53.086;21.576;2022-08-19T15:23:54;35.60;45.80
45207;DHT22;30950;53.086;21.576;2022-08-19T15:26:22;35.60;46.10
45207;DHT22;30950;53.086;21.576;2022-08-19T15:28:49;35.50;46.10
45207;DHT22;30950;53.086;21.576;2022-08-19T15:31:20;35.50;46.50
45207;DHT22;30950;53.086;21.576;2022-08-19T15:33:57;35.30;46.30
45207;DHT22;30950;53.086;21.576;2022-08-19T15:36:26;35.10;46.70
45207;DHT22;30950;53.086;21.576;2022-08-19T15:38:54;35.00;46.80
45207;DHT22;30950;53.086;21.576;2022-08-19T15:41:27;34.90;46.90
45207;DHT22;30950;53.086;21.576;2022-08-19T15:44:06;34.90;47.20
45207;DHT22;30950;53.086;21.576;2022-08-19T15:46:38;34.90;48.00
45207;DHT22;30950;53.086;21.576;2022-08-19T15:49:09;34.80;46.90
45207;DHT22;30950;53.086;21.576;2022-08-19T15:51:38;34.80;46.80
45207;DHT22;30950;53.086;21.576;2022-08-19T15:54:07;34.70;46.70
45207;DHT22;30950;53.086;21.576;2022-08-19T15:56:35;34.60;46.80
45207;DHT22;30950;53.086;21.576;2022-08-19T15:59:35;34.60;47.20
45207;DHT22;30950;53.086;21.576;2022-08-19T16:02:27;34.50;47.30